Terminal Aerodrome Forecast
Issued by NWS

Current Version | Previous Version | Graphics & Text | Print | Product List | Glossary On
Versions: 1 2 3 4 5 6 7 8 9 10 11 12 13 14 15 16 17 18 19 20 21
000
FTUS41 KRLX 180200 AAA
TAFCKB
TAF AMD
KCKB 180214Z 1802/1824 00000KT 6SM BR BKN035
     FM180700 00000KT 3/4SM BR SCT035
     FM181300 00000KT 4SM BR BKN250
     FM181500 VRB03KT P6SM BKN250
     FM181600 VRB03KT P6SM SCT040
     FM182200 36004KT P6SM SCT140=

USA.gov is the U.S. government's official web portal to all federal, state and local government web resources and services.